Time;durP1;ratioP1;P1;durP2;ratioP2;P2;SDS_P1;SDS_P2;PMS_P1;PMS_P2;Temp;Humidity;BMP_temperature;BMP_pressure;BME280_temperature;BME280_humidity;BME280_pressure;Samples;Min_cycle;Max_cycle;Signal;HPM_P1;HPM_P2
2023/01/31 06:03:14;;;;;;;15.02;4.50;;;1.90;99.90;;;;;;5111658;23;20131;-77
2023/01/31 06:05:40;;;;;;;13.45;4.07;;;1.70;99.90;;;;;;4925691;29;20202;-78
2023/01/31 06:08:06;;;;;;;11.15;4.05;;;1.70;99.90;;;;;;4926137;29;20040;-78
2023/01/31 06:10:32;;;;;;;11.65;4.13;;;1.70;99.90;;;;;;4926484;29;20213;-79
2023/01/31 06:12:57;;;;;;;14.75;4.38;;;1.70;99.90;;;;;;4907478;29;20032;-79
2023/01/31 06:15:23;;;;;;;10.18;4.38;;;1.70;99.90;;;;;;4904246;29;20213;-79
2023/01/31 06:17:49;;;;;;;12.88;4.35;;;1.70;99.90;;;;;;4920574;29;20036;-77
2023/01/31 06:20:15;;;;;;;14.27;4.72;;;1.60;99.90;;;;;;4906773;29;20032;-79
2023/01/31 06:22:41;;;;;;;12.05;4.47;;;1.60;99.90;;;;;;4907201;29;20099;-77
2023/01/31 06:25:11;;;;;;;20.15;5.03;;;1.60;99.90;;;;;;4890102;29;20309;-79
2023/01/31 06:27:40;;;;;;;11.25;4.75;;;1.60;99.90;;;;;;4890525;29;20117;-78
2023/01/31 06:30:06;;;;;;;13.07;4.68;;;1.60;99.90;;;;;;4906684;29;20066;-75
2023/01/31 06:32:32;;;;;;;13.00;4.90;;;1.60;99.90;;;;;;4906917;29;20079;-76
2023/01/31 06:34:58;;;;;;;10.85;4.45;;;1.50;99.90;;;;;;4890556;29;20059;-78
2023/01/31 06:37:24;;;;;;;15.60;5.20;;;1.50;99.90;;;;;;4905989;29;20230;-77
2023/01/31 06:39:50;;;;;;;8.55;4.18;;;1.40;99.90;;;;;;4905917;29;20036;-77
2023/01/31 06:42:15;;;;;;;11.90;4.80;;;1.40;99.90;;;;;;4925796;29;20300;-79
2023/01/31 06:44:41;;;;;;;12.30;4.82;;;1.40;99.90;;;;;;4926180;29;20036;-78
2023/01/31 06:47:07;;;;;;;11.35;5.28;;;1.40;99.90;;;;;;4928407;29;20043;-79
2023/01/31 06:49:38;;;;;;;15.52;4.68;;;1.50;99.90;;;;;;4925948;29;20028;-78
2023/01/31 06:52:04;;;;;;;12.82;4.40;;;1.50;99.90;;;;;;4908582;29;20050;-79
2023/01/31 06:54:40;;;;;;;11.13;4.85;;;1.50;99.90;;;;;;4909068;29;20043;-79
2023/01/31 06:57:06;;;;;;;12.43;4.95;;;1.50;99.90;;;;;;4925355;29;20048;-79
2023/01/31 06:59:35;;;;;;;14.05;4.85;;;1.40;99.90;;;;;;4925781;29;20036;-79
2023/01/31 07:02:00;;;;;;;13.80;4.55;;;1.20;99.90;;;;;;4924974;29;20056;-81
2023/01/31 07:04:26;;;;;;;12.60;4.53;;;1.20;99.90;;;;;;4922654;29;20313;-76
2023/01/31 07:06:52;;;;;;;12.40;4.82;;;1.20;99.90;;;;;;4912908;29;20024;-77
2023/01/31 07:09:24;;;;;;;13.93;5.47;;;1.30;99.90;;;;;;4925064;29;20195;-75
2023/01/31 07:11:49;;;;;;;15.45;5.32;;;1.30;99.90;;;;;;4922949;29;20079;-76
2023/01/31 07:14:15;;;;;;;13.18;4.88;;;1.40;99.90;;;;;;4929095;29;20036;-76
2023/01/31 07:16:41;;;;;;;13.10;4.82;;;1.60;99.90;;;;;;4929504;29;20095;-75
2023/01/31 07:19:07;;;;;;;13.00;4.85;;;1.60;99.90;;;;;;4928871;29;20318;-75
2023/01/31 07:21:34;;;;;;;14.18;4.72;;;1.70;99.90;;;;;;4929158;29;20051;-74
2023/01/31 07:24:00;;;;;;;10.73;4.75;;;1.80;99.90;;;;;;4927792;29;20038;-78
2023/01/31 07:26:26;;;;;;;11.02;4.88;;;1.80;99.90;;;;;;4928729;29;20047;-79
2023/01/31 07:28:58;;;;;;;13.23;5.28;;;1.80;99.90;;;;;;4927748;29;20024;-78
2023/01/31 07:31:32;;;;;;;11.18;4.65;;;2.00;99.90;;;;;;4929217;29;20024;-78
2023/01/31 07:34:02;;;;;;;14.80;5.03;;;2.00;99.90;;;;;;4892589;29;20235;-82
2023/01/31 07:36:28;;;;;;;17.23;5.03;;;2.20;99.90;;;;;;4929058;29;20365;-80
2023/01/31 07:38:56;;;;;;;16.52;5.20;;;2.20;99.90;;;;;;4896381;29;20024;-80
2023/01/31 07:41:23;;;;;;;11.93;5.00;;;2.20;99.90;;;;;;4928937;29;20100;-80
2023/01/31 07:43:52;;;;;;;10.50;4.20;;;2.20;99.90;;;;;;4912558;29;20028;-83
2023/01/31 07:46:39;;;;;;;15.68;4.97;;;2.20;99.90;;;;;;4929662;29;20024;-82
2023/01/31 07:49:20;;;;;;;14.18;4.50;;;2.30;99.90;;;;;;4897478;29;20028;-81
2023/01/31 07:51:50;;;;;;;16.48;3.72;;;2.30;99.90;;;;;;4896852;29;20111;-82
2023/01/31 07:54:25;;;;;;;12.95;4.22;;;2.30;99.90;;;;;;4913024;29;20031;-83
2023/01/31 07:56:51;;;;;;;12.50;3.97;;;2.40;99.90;;;;;;4912688;29;20060;-80
2023/01/31 07:59:22;;;;;;;10.98;4.10;;;2.50;99.90;;;;;;4912400;29;20059;-78
2023/01/31 08:05:01;;;;;;;10.52;3.97;;;2.70;99.90;;;;;;4883671;29;20036;-80
2023/01/31 08:07:30;;;;;;;9.05;3.47;;;2.70;99.90;;;;;;4930185;29;20021;-79
2023/01/31 08:09:58;;;;;;;10.30;3.67;;;2.80;99.90;;;;;;4936821;29;20024;-78
2023/01/31 08:15:20;;;;;;;11.43;3.88;;;3.00;99.90;;;;;;4928033;29;20043;-79
2023/01/31 08:18:20;;;;;;;13.15;4.22;;;3.10;99.90;;;;;;4940235;29;20031;-81
2023/01/31 08:20:46;;;;;;;18.60;4.82;;;3.20;99.90;;;;;;4943974;29;20052;-78
2023/01/31 08:23:11;;;;;;;13.38;3.88;;;3.30;99.90;;;;;;4927607;29;20043;-78
2023/01/31 08:25:37;;;;;;;12.52;4.97;;;3.40;99.90;;;;;;4926775;29;20107;-78
2023/01/31 08:28:06;;;;;;;10.30;3.45;;;3.40;99.90;;;;;;4927110;29;20107;-82
2023/01/31 08:30:39;;;;;;;10.63;4.15;;;3.50;99.90;;;;;;4927342;29;20028;-79
2023/01/31 08:33:10;;;;;;;11.00;3.92;;;3.60;99.90;;;;;;4910704;29;20060;-80
2023/01/31 08:35:37;;;;;;;10.95;3.72;;;3.70;99.90;;;;;;4927279;29;20298;-81
2023/01/31 08:38:24;;;;;;;13.63;3.53;;;3.80;99.90;;;;;;4926884;29;20056;-81
2023/01/31 08:40:59;;;;;;;11.45;3.13;;;3.90;99.90;;;;;;4911127;29;20031;-80
2023/01/31 08:46:29;;;;;;;9.45;3.45;;;4.20;99.90;;;;;;4942304;29;20032;-79
2023/01/31 08:48:58;;;;;;;13.38;3.58;;;4.30;99.90;;;;;;4942130;29;20040;-79
2023/01/31 08:51:24;;;;;;;12.77;3.50;;;4.30;99.90;;;;;;4943649;29;20389;-78
2023/01/31 08:53:50;;;;;;;12.38;3.50;;;4.40;99.90;;;;;;4942611;29;20039;-80
2023/01/31 08:56:16;;;;;;;12.95;3.97;;;4.40;99.90;;;;;;4920751;29;20040;-78
2023/01/31 08:58:45;;;;;;;11.40;3.33;;;4.40;99.90;;;;;;4893866;29;20029;-80
2023/01/31 09:01:37;;;;;;;11.93;3.53;;;4.40;99.90;;;;;;4912493;29;20025;-77
2023/01/31 09:04:08;;;;;;;13.73;3.35;;;4.40;99.90;;;;;;4927112;29;20079;-80
2023/01/31 09:06:53;;;;;;;11.40;3.60;;;4.50;99.90;;;;;;4926857;29;20286;-78
2023/01/31 09:09:24;;;;;;;14.63;4.40;;;4.60;99.90;;;;;;4910109;29;20279;-79
2023/01/31 09:12:21;;;;;;;8.60;4.10;;;4.70;99.90;;;;;;4914375;29;20038;-78
2023/01/31 09:15:01;;;;;;;13.55;3.80;;;4.80;99.90;;;;;;4920926;29;20338;-80
2023/01/31 09:17:52;;;;;;;12.13;3.42;;;4.80;99.90;;;;;;4895753;29;20070;-79
2023/01/31 09:20:21;;;;;;;11.57;3.28;;;4.80;99.90;;;;;;4926479;29;20024;-77
2023/01/31 09:22:46;;;;;;;10.65;3.08;;;4.90;99.90;;;;;;4927261;29;20198;-78
2023/01/31 09:25:12;;;;;;;8.15;2.72;;;5.10;99.90;;;;;;4909657;29;20310;-79
2023/01/31 09:27:44;;;;;;;11.55;3.13;;;5.10;99.90;;;;;;4930162;29;20036;-80
2023/01/31 09:30:10;;;;;;;10.32;3.22;;;5.30;99.90;;;;;;4931482;29;20047;-80
2023/01/31 09:32:40;;;;;;;8.20;3.40;;;5.30;99.90;;;;;;4934989;29;20266;-79
2023/01/31 09:35:06;;;;;;;9.23;3.20;;;5.40;99.90;;;;;;4915204;29;20044;-79
2023/01/31 09:37:32;;;;;;;11.10;3.42;;;5.40;99.90;;;;;;4952052;23;20379;-80
2023/01/31 09:40:25;;;;;;;8.35;2.80;;;5.50;99.90;;;;;;4944030;29;20032;-78
2023/01/31 09:46:19;;;;;;;9.93;3.08;;;5.70;99.90;;;;;;4914558;29;20071;-77
2023/01/31 09:48:57;;;;;;;8.88;3.10;;;5.90;99.90;;;;;;4941923;29;20028;-78
2023/01/31 09:51:23;;;;;;;7.90;2.67;;;6.00;99.90;;;;;;4925444;29;20150;-78
2023/01/31 09:53:49;;;;;;;8.73;2.75;;;6.10;99.90;;;;;;4909382;29;20044;-78
2023/01/31 09:56:52;;;;;;;9.38;3.10;;;6.10;99.90;;;;;;4939381;29;20029;-78
2023/01/31 09:59:31;;;;;;;8.30;3.13;;;6.00;99.90;;;;;;4924555;29;20032;-79
2023/01/31 10:02:11;;;;;;;7.25;2.97;;;6.00;99.90;;;;;;4932871;29;20027;-79
2023/01/31 10:05:11;;;;;;;10.32;3.10;;;6.00;99.90;;;;;;4928400;29;20210;-78
2023/01/31 10:07:57;;;;;;;9.88;2.90;;;6.00;99.90;;;;;;4912779;29;20031;-79
2023/01/31 10:11:00;;;;;;;6.65;2.70;;;6.20;99.90;;;;;;4864576;29;20256;-78
2023/01/31 10:13:57;;;;;;;8.07;3.05;;;6.10;99.90;;;;;;4849787;29;20037;-78
2023/01/31 10:16:22;;;;;;;9.45;2.85;;;6.20;99.90;;;;;;4853737;29;20037;-79
2023/01/31 10:18:58;;;;;;;14.50;3.50;;;6.20;99.90;;;;;;4849362;29;20351;-78
2023/01/31 10:21:43;;;;;;;7.68;3.13;;;6.20;99.90;;;;;;4834368;29;20045;-79
2023/01/31 10:24:31;;;;;;;9.00;3.03;;;6.30;99.90;;;;;;4848856;29;20082;-78
2023/01/31 10:27:04;;;;;;;7.95;2.72;;;6.30;99.90;;;;;;4848954;29;20077;-78
2023/01/31 10:29:39;;;;;;;10.27;3.15;;;6.30;99.90;;;;;;4864781;29;20279;-79
2023/01/31 10:35:29;;;;;;;8.68;2.70;;;6.10;99.90;;;;;;4864587;29;20066;-78
2023/01/31 10:38:07;;;;;;;8.40;2.37;;;5.90;99.90;;;;;;4866323;29;20182;-77
2023/01/31 10:40:38;;;;;;;7.32;2.45;;;6.00;99.90;;;;;;4859882;29;20044;-78
2023/01/31 10:43:33;;;;;;;9.63;2.85;;;6.20;99.90;;;;;;4848634;29;20029;-78
2023/01/31 10:46:12;;;;;;;8.85;2.70;;;6.50;99.90;;;;;;4840416;29;20034;-77
2023/01/31 10:48:41;;;;;;;5.68;2.50;;;6.50;99.90;;;;;;4892748;29;20048;-77
2023/01/31 10:51:48;;;;;;;7.80;2.40;;;6.70;99.90;;;;;;4893224;29;20028;-78
2023/01/31 10:54:55;;;;;;;6.78;2.17;;;6.80;99.90;;;;;;4920427;29;20111;-79
2023/01/31 10:57:22;;;;;;;6.05;2.08;;;6.70;99.60;;;;;;4927861;29;20028;-78
2023/01/31 10:59:48;;;;;;;9.48;2.13;;;6.80;99.40;;;;;;4944475;29;20024;-78
2023/01/31 11:02:32;;;;;;;8.52;2.47;;;6.90;99.40;;;;;;4926928;29;20030;-80
2023/01/31 11:04:59;;;;;;;6.72;2.30;;;7.00;99.10;;;;;;4944078;29;20023;-82
2023/01/31 11:07:32;;;;;;;6.60;2.20;;;6.90;99.10;;;;;;4927668;29;20035;-82
2023/01/31 11:09:57;;;;;;;8.77;2.42;;;6.90;99.10;;;;;;4942787;29;20128;-78
2023/01/31 11:12:54;;;;;;;6.10;1.90;;;6.90;99.10;;;;;;4927992;29;20034;-80
2023/01/31 11:15:24;;;;;;;11.88;2.42;;;7.10;98.90;;;;;;4944545;29;20046;-79
2023/01/31 11:17:50;;;;;;;8.40;2.20;;;7.10;98.60;;;;;;4944473;29;20091;-79
2023/01/31 11:20:44;;;;;;;6.90;2.10;;;7.10;98.90;;;;;;4927543;29;20042;-80
2023/01/31 11:23:15;;;;;;;9.93;2.55;;;7.40;98.60;;;;;;4943685;29;20050;-77
2023/01/31 11:25:50;;;;;;;8.05;2.20;;;7.30;98.40;;;;;;4927188;29;20034;-78
2023/01/31 11:28:39;;;;;;;8.88;2.22;;;7.40;98.50;;;;;;4943997;29;20038;-79
2023/01/31 11:31:25;;;;;;;9.48;2.15;;;7.10;98.30;;;;;;4937574;29;20099;-79
2023/01/31 11:34:07;;;;;;;11.55;2.00;;;7.10;98.50;;;;;;4911736;29;20070;-78
2023/01/31 11:36:46;;;;;;;6.53;2.28;;;6.90;98.70;;;;;;4935437;29;20066;-79
2023/01/31 11:39:24;;;;;;;;;;;6.80;99.00;;;;;;4963549;29;20331;-77
2023/01/31 11:41:49;;;;;;;7.18;2.28;;;6.90;99.00;;;;;;4963358;29;20031;-78
2023/01/31 11:44:17;;;;;;;7.85;1.85;;;7.00;99.10;;;;;;4962614;29;20224;-79
2023/01/31 11:47:03;;;;;;;8.80;1.83;;;7.00;98.80;;;;;;4945939;29;20070;-78
2023/01/31 11:49:39;;;;;;;8.63;2.33;;;7.00;98.70;;;;;;4945973;29;20047;-79
2023/01/31 11:52:27;;;;;;;5.72;1.90;;;7.10;98.70;;;;;;4964969;28;20215;-78
2023/01/31 11:54:54;;;;;;;;;;;7.10;98.60;;;;;;4933051;29;20066;-79
2023/01/31 11:57:27;;;;;;;11.13;2.17;;;7.10;98.70;;;;;;4951648;29;19906;-78
2023/01/31 11:59:56;;;;;;;7.05;2.17;;;7.10;98.60;;;;;;4949357;29;20038;-79
2023/01/31 12:02:38;;;;;;;5.50;1.73;;;7.30;98.60;;;;;;4966371;29;20070;-76
2023/01/31 12:05:21;;;;;;;7.82;2.08;;;7.50;97.90;;;;;;4966160;29;20039;-80
2023/01/31 12:07:52;;;;;;;6.90;1.85;;;7.70;97.40;;;;;;4949511;29;20106;-77
2023/01/31 12:10:53;;;;;;;5.30;1.38;;;7.60;96.50;;;;;;4965920;29;20058;-77
2023/01/31 12:13:21;;;;;;;6.57;1.55;;;7.50;96.30;;;;;;4961855;29;20043;-77
2023/01/31 12:16:04;;;;;;;7.87;2.07;;;7.40;96.40;;;;;;4966142;29;20201;-78
2023/01/31 12:18:35;;;;;;;7.63;2.08;;;7.60;96.90;;;;;;4949121;29;20467;-80
2023/01/31 12:21:13;;;;;;;8.48;1.92;;;7.70;96.70;;;;;;4965594;29;20069;-77
2023/01/31 12:23:46;;;;;;;;;;;7.90;96.30;;;;;;4951492;29;20027;-75
2023/01/31 12:26:25;;;;;;;7.85;1.98;;;7.80;96.20;;;;;;4967072;29;19906;-77
2023/01/31 12:29:13;;;;;;;;;;;7.80;96.00;;;;;;4966736;29;20027;-77
2023/01/31 12:32:03;;;;;;;7.07;2.53;;;7.80;96.70;;;;;;4947176;29;19913;-78
2023/01/31 12:34:43;;;;;;;7.35;1.92;;;8.00;95.60;;;;;;4946710;29;20039;-79
2023/01/31 12:37:20;;;;;;;6.75;1.77;;;8.00;95.40;;;;;;4946313;29;20043;-79
2023/01/31 12:40:16;;;;;;;8.68;1.85;;;8.10;95.00;;;;;;4953797;29;20043;-78
2023/01/31 12:42:48;;;;;;;6.93;1.63;;;8.80;94.60;;;;;;4964407;28;20257;-79
2023/01/31 12:45:23;;;;;;;8.57;1.55;;;9.70;92.30;;;;;;4948022;29;20070;-77
2023/01/31 12:48:11;;;;;;;4.13;1.30;;;9.80;92.00;;;;;;4948894;29;20031;-78
2023/01/31 12:50:57;;;;;;;5.95;1.42;;;9.30;91.70;;;;;;4964607;29;20030;-78
2023/01/31 12:53:49;;;;;;;7.35;1.25;;;8.60;92.90;;;;;;4950871;29;20046;-78
2023/01/31 12:56:15;;;;;;;7.40;1.75;;;7.90;93.80;;;;;;4950089;29;20063;-78
2023/01/31 12:58:47;;;;;;;5.57;1.50;;;7.60;94.40;;;;;;4965205;29;20039;-78
2023/01/31 13:01:35;;;;;;;6.18;1.73;;;7.30;94.80;;;;;;4964504;29;20119;-77
2023/01/31 13:04:44;;;;;;;5.15;1.70;;;7.30;95.30;;;;;;4949455;28;20183;-78
2023/01/31 13:07:42;;;;;;;4.80;1.27;;;7.30;95.20;;;;;;4947829;29;20039;-79
2023/01/31 13:10:31;;;;;;;8.23;1.70;;;7.20;95.60;;;;;;4928997;29;20211;-77
2023/01/31 13:12:58;;;;;;;10.68;2.03;;;7.00;95.90;;;;;;4961094;29;20207;-79
2023/01/31 13:15:30;;;;;;;4.47;1.35;;;6.90;95.80;;;;;;4946273;29;20084;-77
2023/01/31 13:18:02;;;;;;;6.10;1.40;;;6.80;96.20;;;;;;4945667;29;20043;-79
2023/01/31 13:20:53;;;;;;;6.75;1.75;;;6.80;95.90;;;;;;4928979;29;20094;-77
2023/01/31 13:23:28;;;;;;;5.80;1.60;;;6.70;96.20;;;;;;4928410;29;20043;-77
2023/01/31 13:26:20;;;;;;;7.47;1.95;;;6.60;96.20;;;;;;4945972;29;20035;-77
2023/01/31 13:29:09;;;;;;;5.45;1.60;;;6.60;96.60;;;;;;4932050;29;20053;-78
2023/01/31 13:31:43;;;;;;;6.78;1.70;;;6.50;97.00;;;;;;4944499;29;20221;-79
2023/01/31 13:34:21;;;;;;;8.80;1.75;;;6.30;97.10;;;;;;4945071;29;20035;-78
2023/01/31 13:36:49;;;;;;;9.03;1.90;;;6.10;97.30;;;;;;4960299;29;20063;-77
2023/01/31 13:39:35;;;;;;;7.43;1.92;;;6.10;97.50;;;;;;4947882;29;20031;-77
2023/01/31 13:42:01;;;;;;;4.53;2.00;;;6.00;97.70;;;;;;4979395;28;20027;-77
2023/01/31 13:44:27;;;;;;;5.53;1.63;;;6.00;97.80;;;;;;4905617;29;20039;-78
2023/01/31 13:47:15;;;;;;;7.88;2.13;;;6.00;97.80;;;;;;4889738;29;20056;-77
2023/01/31 13:49:47;;;;;;;;;;;6.00;98.00;;;;;;4905947;29;20261;-76
2023/01/31 13:52:51;;;;;;;10.18;2.42;;;5.90;97.70;;;;;;4905044;29;19907;-76
2023/01/31 13:55:32;;;;;;;5.30;1.65;;;6.00;97.90;;;;;;4884428;29;20304;-76
2023/01/31 13:58:21;;;;;;;6.43;2.05;;;5.90;98.00;;;;;;4889830;29;20036;-78
2023/01/31 14:00:57;;;;;;;7.95;2.00;;;5.90;97.80;;;;;;4904294;29;20283;-78
2023/01/31 14:03:24;;;;;;;6.75;1.70;;;6.00;98.10;;;;;;4899754;29;20247;-77
2023/01/31 14:05:52;;;;;;;5.85;2.05;;;6.00;97.90;;;;;;4878128;29;20036;-77
2023/01/31 14:08:37;;;;;;;4.63;1.88;;;6.00;97.60;;;;;;4905221;29;20032;-79
2023/01/31 14:11:25;;;;;;;8.02;2.00;;;6.00;97.70;;;;;;4904827;29;20041;-80
2023/01/31 14:14:15;;;;;;;5.63;1.98;;;5.90;97.70;;;;;;4889403;29;20044;-81
2023/01/31 14:16:44;;;;;;;5.45;2.45;;;5.90;98.10;;;;;;4963899;29;20034;-77
2023/01/31 14:19:20;;;;;;;7.82;2.05;;;5.90;98.20;;;;;;4963404;29;20039;-76
2023/01/31 14:22:03;;;;;;;10.82;2.25;;;6.00;98.20;;;;;;4964312;29;20039;-77
2023/01/31 14:24:52;;;;;;;7.85;2.40;;;6.10;98.30;;;;;;4945804;29;20036;-79
2023/01/31 14:27:20;;;;;;;10.05;2.63;;;6.10;98.30;;;;;;4956741;28;20388;-78
2023/01/31 14:30:19;;;;;;;5.97;2.17;;;6.60;98.10;;;;;;4945638;29;20070;-78
2023/01/31 14:33:10;;;;;;;9.00;2.20;;;6.70;97.30;;;;;;4944445;29;20214;-77
2023/01/31 14:36:15;;;;;;;10.15;2.30;;;6.60;97.00;;;;;;4970077;28;20116;-79
2023/01/31 14:39:15;;;;;;;5.90;1.80;;;6.60;97.30;;;;;;4938693;29;20063;-78
2023/01/31 14:42:02;;;;;;;8.50;2.25;;;6.50;97.30;;;;;;4936730;29;20091;-78
2023/01/31 14:44:58;;;;;;;7.63;2.10;;;6.60;97.50;;;;;;4931753;29;20040;-77
2023/01/31 14:47:42;;;;;;;7.57;2.53;;;6.80;97.00;;;;;;4947261;29;20035;-77
2023/01/31 14:50:22;;;;;;;5.65;2.22;;;6.80;96.90;;;;;;4945206;29;20344;-78
2023/01/31 14:52:51;;;;;;;6.10;1.90;;;6.70;97.10;;;;;;4944351;29;20043;-77
2023/01/31 14:55:38;;;;;;;5.93;1.75;;;6.40;97.50;;;;;;4943933;29;20035;-78
2023/01/31 14:58:05;;;;;;;5.55;1.88;;;6.20;97.80;;;;;;4943604;29;20321;-78
2023/01/31 15:00:35;;;;;;;5.95;2.15;;;6.00;98.10;;;;;;4944560;29;20065;-78
2023/01/31 15:03:16;;;;;;;7.82;2.38;;;6.00;98.20;;;;;;4943821;29;20035;-77
2023/01/31 15:06:12;;;;;;;6.53;2.47;;;5.90;98.40;;;;;;4944219;29;20035;-79
2023/01/31 15:08:39;;;;;;;5.68;2.40;;;5.90;98.50;;;;;;4943850;29;20023;-77
2023/01/31 15:11:24;;;;;;;6.35;2.03;;;6.00;98.70;;;;;;4943762;29;20043;-78
2023/01/31 15:13:56;;;;;;;7.35;2.17;;;6.00;98.50;;;;;;4927398;29;20050;-77
2023/01/31 15:16:28;;;;;;;8.13;2.38;;;5.90;98.60;;;;;;4935572;29;20032;-78
2023/01/31 15:19:06;;;;;;;5.75;2.17;;;5.90;98.70;;;;;;4944020;29;20035;-78
2023/01/31 15:21:39;;;;;;;6.20;2.30;;;6.10;98.70;;;;;;4943127;29;20201;-76
2023/01/31 15:24:11;;;;;;;6.38;2.30;;;6.10;98.50;;;;;;4943953;29;20047;-77
2023/01/31 15:26:39;;;;;;;7.68;2.70;;;6.10;98.60;;;;;;4944233;29;20165;-77
2023/01/31 15:29:06;;;;;;;8.90;2.33;;;6.10;98.70;;;;;;4947148;29;20016;-78
2023/01/31 15:31:43;;;;;;;6.93;2.10;;;6.00;98.70;;;;;;4930537;29;20058;-78
2023/01/31 15:34:19;;;;;;;5.07;2.97;;;6.00;98.80;;;;;;4930303;29;20304;-77
2023/01/31 15:36:56;;;;;;;5.95;2.47;;;6.10;98.60;;;;;;4955668;29;20067;-78
2023/01/31 15:39:31;;;;;;;7.55;2.30;;;6.10;98.90;;;;;;4945522;29;20050;-77
2023/01/31 15:41:57;;;;;;;5.65;2.30;;;6.00;98.80;;;;;;4947793;29;20322;-77
2023/01/31 15:44:26;;;;;;;4.53;2.10;;;6.00;99.10;;;;;;4914303;29;20067;-76
2023/01/31 15:46:54;;;;;;;7.00;2.63;;;6.00;98.90;;;;;;4960366;29;20379;-77
2023/01/31 15:49:31;;;;;;;7.07;2.65;;;6.00;99.00;;;;;;4948898;29;20059;-79
2023/01/31 15:52:04;;;;;;;7.50;2.60;;;6.00;99.10;;;;;;4966549;29;20061;-78
2023/01/31 15:54:30;;;;;;;6.28;2.35;;;6.00;99.10;;;;;;4966265;29;20094;-78
2023/01/31 15:56:57;;;;;;;6.40;2.20;;;5.90;99.10;;;;;;4949464;29;20054;-78
2023/01/31 15:59:26;;;;;;;5.38;2.22;;;5.90;99.20;;;;;;4964916;29;20070;-77
2023/01/31 16:01:59;;;;;;;8.25;2.70;;;5.90;99.40;;;;;;4965622;29;20027;-76
2023/01/31 16:04:27;;;;;;;6.55;2.50;;;5.90;99.40;;;;;;4949216;29;20049;-76
2023/01/31 16:06:54;;;;;;;;;;;5.80;99.50;;;;;;4949891;29;20269;-79
2023/01/31 16:09:29;;;;;;;5.05;2.13;;;5.80;99.80;;;;;;4965907;29;20194;-79
2023/01/31 16:11:57;;;;;;;7.07;2.30;;;5.80;99.90;;;;;;4965162;29;20337;-77
2023/01/31 16:14:35;;;;;;;6.57;2.30;;;5.80;99.90;;;;;;4966039;29;20031;-76
2023/01/31 16:17:04;;;;;;;7.50;2.38;;;5.70;99.90;;;;;;4966062;29;20037;-78
2023/01/31 16:19:34;;;;;;;5.97;2.22;;;5.70;99.90;;;;;;4949182;29;20236;-80
2023/01/31 16:22:01;;;;;;;6.07;2.80;;;5.70;99.90;;;;;;4948723;29;20062;-79
2023/01/31 16:24:33;;;;;;;6.15;3.15;;;5.60;99.90;;;;;;4966109;29;20032;-78
2023/01/31 16:27:16;;;;;;;7.43;2.78;;;5.60;99.90;;;;;;4965912;29;20059;-80
2023/01/31 16:29:55;;;;;;;5.68;2.42;;;5.70;99.90;;;;;;4954577;29;20246;-80
2023/01/31 16:32:50;;;;;;;;;;;5.70;99.90;;;;;;4969175;28;20039;-77
2023/01/31 16:35:23;;;;;;;5.55;2.33;;;5.60;99.90;;;;;;4949826;28;19921;-72
2023/01/31 16:38:02;;;;;;;7.47;2.00;;;5.60;99.90;;;;;;4931561;29;20054;-75
2023/01/31 16:40:35;;;;;;;6.35;2.65;;;5.60;99.90;;;;;;4953270;29;20040;-74
2023/01/31 16:43:24;;;;;;;8.15;2.78;;;5.60;99.90;;;;;;4946006;29;20369;-75
2023/01/31 16:45:54;;;;;;;6.00;2.45;;;5.60;99.90;;;;;;4964177;28;20027;-74
2023/01/31 16:48:24;;;;;;;7.20;2.35;;;5.60;99.90;;;;;;4944979;29;20126;-75
2023/01/31 16:50:52;;;;;;;7.57;2.67;;;5.50;99.90;;;;;;4946319;29;20066;-73
2023/01/31 16:53:38;;;;;;;10.13;2.95;;;5.60;99.90;;;;;;4945736;29;20063;-75
2023/01/31 16:56:13;;;;;;;6.28;2.55;;;5.60;99.90;;;;;;4929026;29;20039;-75
2023/01/31 16:58:51;;;;;;;7.38;2.78;;;5.50;99.90;;;;;;4956029;29;20031;-80
2023/01/31 17:01:21;;;;;;;7.25;2.47;;;5.50;99.90;;;;;;4963621;28;20027;-80
2023/01/31 17:04:05;;;;;;;7.85;2.60;;;5.50;99.90;;;;;;4947808;29;20103;-79
2023/01/31 17:06:32;;;;;;;8.75;3.45;;;5.50;99.90;;;;;;4940086;28;20080;-80
2023/01/31 17:08:58;;;;;;;7.50;3.15;;;5.50;99.90;;;;;;4974198;28;20115;-79
2023/01/31 17:11:27;;;;;;;6.50;2.85;;;5.50;99.90;;;;;;4947923;29;20028;-78
2023/01/31 17:13:55;;;;;;;9.52;3.15;;;5.50;99.90;;;;;;4945169;29;20054;-80
2023/01/31 17:16:26;;;;;;;7.60;2.97;;;5.50;99.90;;;;;;4928047;29;20027;-77
2023/01/31 17:18:54;;;;;;;6.28;2.90;;;5.50;99.90;;;;;;4944001;29;20036;-77
2023/01/31 17:21:24;;;;;;;8.88;3.10;;;5.40;99.90;;;;;;4917495;29;20403;-80
2023/01/31 17:23:50;;;;;;;5.90;2.80;;;5.50;99.90;;;;;;4947504;29;20046;-80
2023/01/31 17:26:19;;;;;;;7.97;4.78;;;5.50;99.90;;;;;;4947444;29;20328;-78
2023/01/31 17:28:45;;;;;;;7.82;3.63;;;5.50;99.90;;;;;;4959273;29;20028;-78
2023/01/31 17:31:17;;;;;;;6.22;2.40;;;5.50;99.90;;;;;;4960246;29;20046;-80
2023/01/31 17:33:43;;;;;;;8.80;3.17;;;5.50;99.90;;;;;;4943999;29;20075;-77
2023/01/31 17:36:09;;;;;;;5.47;2.83;;;5.50;99.90;;;;;;4920692;29;20044;-79
2023/01/31 17:38:35;;;;;;;5.78;3.00;;;5.50;99.90;;;;;;4920529;29;20047;-78
2023/01/31 17:41:01;;;;;;;6.13;2.60;;;5.50;99.90;;;;;;4909531;29;20053;-81
2023/01/31 17:43:26;;;;;;;6.28;2.65;;;5.60;99.90;;;;;;4890173;29;20036;-78
2023/01/31 17:45:53;;;;;;;7.28;2.38;;;5.50;99.90;;;;;;4911732;29;20043;-76
2023/01/31 17:48:19;;;;;;;6.32;2.70;;;5.60;99.90;;;;;;4924948;29;20333;-80
2023/01/31 17:50:45;;;;;;;5.60;2.50;;;5.60;99.90;;;;;;4930055;29;20091;-79
2023/01/31 17:53:15;;;;;;;5.20;2.78;;;5.50;99.90;;;;;;4944476;29;20073;-79
2023/01/31 17:55:41;;;;;;;4.85;2.30;;;5.50;99.90;;;;;;4946047;29;20126;-80
2023/01/31 17:58:16;;;;;;;7.32;2.90;;;5.50;99.90;;;;;;4945076;29;20299;-78
2023/01/31 18:00:45;;;;;;;8.35;2.63;;;5.50;99.90;;;;;;4930735;29;20031;-77
2023/01/31 18:03:17;;;;;;;6.80;2.75;;;5.50;99.90;;;;;;4935462;29;20207;-79
2023/01/31 18:05:46;;;;;;;5.82;2.97;;;5.50;99.90;;;;;;4945107;29;20076;-80
2023/01/31 18:08:13;;;;;;;5.93;3.00;;;5.50;99.90;;;;;;4944535;29;20024;-79
2023/01/31 18:10:42;;;;;;;6.80;2.97;;;5.40;99.90;;;;;;4928498;29;20107;-80
2023/01/31 18:13:11;;;;;;;6.80;2.88;;;5.40;99.90;;;;;;4924809;29;20040;-80
2023/01/31 18:15:38;;;;;;;5.28;2.78;;;5.40;99.90;;;;;;4926515;29;20035;-80
2023/01/31 18:18:07;;;;;;;9.00;3.13;;;5.40;99.90;;;;;;4909035;29;20234;-81
2023/01/31 18:20:37;;;;;;;7.93;3.75;;;5.30;99.90;;;;;;4926211;29;20043;-79
2023/01/31 18:23:04;;;;;;;6.13;2.67;;;5.30;99.90;;;;;;4908659;29;20063;-81
2023/01/31 18:25:31;;;;;;;7.00;3.00;;;5.30;99.90;;;;;;4926236;29;20330;-78
2023/01/31 18:27:57;;;;;;;7.65;2.88;;;5.30;99.90;;;;;;4909223;29;20028;-78
2023/01/31 18:30:26;;;;;;;8.23;2.95;;;5.30;99.90;;;;;;4942814;29;20075;-78
2023/01/31 18:32:51;;;;;;;7.20;3.13;;;5.30;99.90;;;;;;4944823;29;20031;-79
2023/01/31 18:35:19;;;;;;;7.95;3.28;;;5.30;99.90;;;;;;4944773;29;20047;-79
2023/01/31 18:37:46;;;;;;;7.65;3.00;;;5.30;99.90;;;;;;4960508;28;20062;-78
2023/01/31 18:40:13;;;;;;;6.47;3.03;;;5.30;99.90;;;;;;4952378;29;20042;-74
2023/01/31 18:43:05;;;;;;;5.95;2.97;;;5.30;99.90;;;;;;4911840;29;20226;-77
2023/01/31 18:45:31;;;;;;;6.15;3.05;;;5.30;99.90;;;;;;4930536;29;20038;-78
2023/01/31 18:47:57;;;;;;;6.50;3.30;;;5.30;99.90;;;;;;4963434;29;20035;-77
2023/01/31 18:50:22;;;;;;;9.73;3.30;;;5.30;99.90;;;;;;4964170;29;20027;-76
2023/01/31 18:52:48;;;;;;;10.20;3.60;;;5.30;99.90;;;;;;4947592;29;20031;-76
2023/01/31 18:55:14;;;;;;;6.22;3.00;;;5.30;99.90;;;;;;4964021;29;20035;-76
2023/01/31 18:57:40;;;;;;;5.78;3.25;;;5.40;99.90;;;;;;4964986;29;20265;-76
2023/01/31 19:00:07;;;;;;;8.52;3.10;;;5.40;99.90;;;;;;4963373;29;20027;-77
2023/01/31 19:02:34;;;;;;;6.17;3.47;;;5.40;99.90;;;;;;4967569;29;20099;-78
2023/01/31 19:05:07;;;;;;;7.45;3.25;;;5.40;99.90;;;;;;4973431;29;20054;-78
2023/01/31 19:07:36;;;;;;;6.70;2.90;;;5.40;99.90;;;;;;4972370;29;20079;-79
2023/01/31 19:10:02;;;;;;;7.93;3.75;;;5.40;99.90;;;;;;4975622;29;20031;-78
2023/01/31 19:12:28;;;;;;;7.10;3.63;;;5.40;99.90;;;;;;4957249;29;20063;-79
2023/01/31 19:14:57;;;;;;;5.28;3.00;;;5.40;99.90;;;;;;4941312;29;20347;-76
2023/01/31 19:17:25;;;;;;;;;;;5.40;99.90;;;;;;4969796;29;20325;-79
2023/01/31 19:19:51;;;;;;;7.68;3.53;;;5.40;99.90;;;;;;4967273;29;19937;-78
2023/01/31 19:22:17;;;;;;;6.38;3.38;;;5.40;99.90;;;;;;4967525;29;20046;-78
2023/01/31 19:24:47;;;;;;;6.55;3.20;;;5.40;99.90;;;;;;4952296;29;20031;-78
2023/01/31 19:27:13;;;;;;;6.05;3.50;;;5.30;99.90;;;;;;4967838;29;20373;-79
2023/01/31 19:29:49;;;;;;;6.10;2.75;;;5.30;99.90;;;;;;4967825;29;20335;-79
2023/01/31 19:32:15;;;;;;;6.55;2.70;;;5.40;99.90;;;;;;4967691;29;20135;-79
2023/01/31 19:34:41;;;;;;;6.05;3.10;;;5.40;99.90;;;;;;4972551;29;20023;-78
2023/01/31 19:37:08;;;;;;;5.68;3.20;;;5.40;99.90;;;;;;4962738;29;20074;-78
2023/01/31 19:39:34;;;;;;;7.63;3.08;;;5.40;99.90;;;;;;4974089;29;20138;-79
2023/01/31 19:42:06;;;;;;;6.13;2.72;;;5.40;99.90;;;;;;4957552;29;20039;-78
2023/01/31 19:44:32;;;;;;;6.05;3.15;;;5.40;99.90;;;;;;4954815;29;20317;-78
2023/01/31 19:47:01;;;;;;;5.07;2.90;;;5.40;99.90;;;;;;4965801;29;20095;-78
2023/01/31 19:49:26;;;;;;;7.18;2.90;;;5.40;99.90;;;;;;4984789;28;20073;-77